Friday, December 19, 2014, 1:08 PM EST

KMDT, Harrisburg International Airport

Location: Middletown, PA, United States Lat: 40.2
Local Time: 1:08 PM EST (18:08 GMT) Lon: -76.767
Time Zone: US/Eastern Elev: 308 ft

Show me the last for .
Show Decoded

2014-12-19 11:56 METAR KMDT 191656Z 32015KT 10SM BKN037 03/M06 A3010 =
2014-12-19 10:56 METAR KMDT 191556Z 33014G20KT 10SM OVC037 03/M06 A3011 =
2014-12-19 09:56 METAR KMDT 191456Z 30009KT 10SM OVC035 02/M04 A3012 RMK AO2 SLP204 T00221039
                 51014 =
2014-12-19 08:56 METAR KMDT 191356Z 30009KT 10SM OVC032 02/M04 A3011 =
2014-12-19 08:35 METAR KMDT 191335Z 30010KT 10SM OVC030 02/M04 A3011 RMK AO2 T00171044 =
2014-12-19 07:56 METAR KMDT 191256Z 30009KT 10SM OVC029 02/M04 A3009 =
2014-12-19 06:56 METAR KMDT 191156Z 30010KT 10SM OVC029 01/M04 A3008 =
2014-12-19 06:52 METAR KMDT 191152Z 30011KT 10SM OVC029 01/M04 A3008 RMK AO2 =
2014-12-19 05:56 METAR KMDT 191056Z 30008KT 10SM OVC030 01/M04 A3006 RMK AO2 SLP184 T00111044 =
2014-12-19 04:56 METAR KMDT 190956Z 30014KT 10SM OVC032 01/M04 A3006 RMK AO2 SLP182 T00111044 =
2014-12-19 04:29 METAR KMDT 190929Z 30013KT 10SM OVC031 01/M04 A3006 RMK AO2 T00111044 =
2014-12-19 03:56 METAR KMDT 190856Z 28011KT 10SM OVC029 01/M04 A3006 RMK AO2 SLP184 T00111039
                 50002 =
2014-12-19 03:22 METAR KMDT 190822Z 29014KT 10SM OVC030 01/M04 A3007 RMK AO2 T00111039 =
2014-12-19 02:56 METAR KMDT 190756Z 28011KT 10SM OVC029 01/M04 A3006 RMK AO2 SLP185 T00111039 =
2014-12-19 01:56 METAR KMDT 190656Z 30010KT 10SM OVC027 01/M04 A3006 RMK AO2 SLP183 T00111039 =
2014-12-19 00:56 METAR KMDT 190556Z 30010KT 10SM OVC027 01/M04 A3006 RMK AO2 SLP182 T00111039
                 10017 20011 58006 =
2014-12-18 23:56 METAR KMDT 190456Z 30009KT 10SM OVC028 01/M04 A3007 RMK AO2 SLP185 T00111044
                 400280011 =
2014-12-18 22:56 METAR KMDT 190356Z 30009KT 10SM OVC029 01/M05 A3007 =
2014-12-18 21:56 METAR KMDT 190256Z 30009KT 10SM OVC029 01/M04 A3007 RMK AO2 SLP188 T00111039
                 50004 =
2014-12-18 20:56 METAR KMDT 190156Z 30010KT 10SM OVC029 02/M04 A3008 =
2014-12-18 19:56 METAR KMDT 190056Z 31008KT 10SM OVC030 02/M04 A3008 RMK AO2 SLP189 T00171044 =
2014-12-18 18:56 METAR KMDT 182356Z 33009KT 10SM OVC031 02/M05 A3006 =
2014-12-18 17:56 METAR KMDT 182256Z 30012KT 10SM OVC031 02/M05 A3007 RMK AO2 SLP186 T00171050 =
2014-12-18 16:56 METAR KMDT 182156Z 33012KT 10SM OVC031 02/M05 A3007 RMK AO2 SLP185 T00171050 =
2014-12-18 15:56 METAR KMDT 182056Z 31011KT 10SM OVC031 02/M05 A3007 =
2014-12-18 14:56 METAR KMDT 181956Z 30018G24KT 10SM OVC033 02/M05 A3007 RMK AO2 SLP185 T00171050
                 =
2014-12-18 13:56 METAR KMDT 181856Z 30015G21KT 10SM OVC035 02/M05 A3008 =

Support USWX by starting your Amazon purchase here.